sensor_id;sensor_type;location;lat;lon;timestamp;P1;durP1;ratioP1;P2;durP2;ratioP2
27491;SDS011;14927;51.210;6.838;2023-07-08T00:00:27;3.25;;;2.70;;
27491;SDS011;14927;51.210;6.838;2023-07-08T00:03:11;3.60;;;2.72;;
27491;SDS011;14927;51.210;6.838;2023-07-08T00:05:56;5.32;;;2.80;;
27491;SDS011;14927;51.210;6.838;2023-07-08T00:08:41;3.83;;;2.83;;
27491;SDS011;14927;51.210;6.838;2023-07-08T00:11:26;7.78;;;2.97;;
27491;SDS011;14927;51.210;6.838;2023-07-08T00:14:15;4.35;;;3.22;;
27491;SDS011;14927;51.210;6.838;2023-07-08T00:17:00;2.97;;;2.67;;
27491;SDS011;14927;51.210;6.838;2023-07-08T00:19:44;5.70;;;4.10;;
27491;SDS011;14927;51.210;6.838;2023-07-08T00:22:29;5.93;;;2.88;;
27491;SDS011;14927;51.210;6.838;2023-07-08T00:25:14;3.85;;;2.75;;
27491;SDS011;14927;51.210;6.838;2023-07-08T00:27:58;4.85;;;2.80;;
27491;SDS011;14927;51.210;6.838;2023-07-08T00:30:43;3.55;;;2.78;;
27491;SDS011;14927;51.210;6.838;2023-07-08T00:33:27;6.00;;;2.63;;
27491;SDS011;14927;51.210;6.838;2023-07-08T00:36:13;6.43;;;2.88;;
27491;SDS011;14927;51.210;6.838;2023-07-08T00:38:59;8.57;;;3.10;;
27491;SDS011;14927;51.210;6.838;2023-07-08T00:41:43;3.30;;;2.58;;
27491;SDS011;14927;51.210;6.838;2023-07-08T00:44:28;6.85;;;2.47;;
27491;SDS011;14927;51.210;6.838;2023-07-08T00:47:14;4.65;;;2.78;;
27491;SDS011;14927;51.210;6.838;2023-07-08T00:50:00;4.47;;;3.00;;
27491;SDS011;14927;51.210;6.838;2023-07-08T00:52:49;4.25;;;3.05;;
27491;SDS011;14927;51.210;6.838;2023-07-08T00:55:34;6.22;;;2.58;;
27491;SDS011;14927;51.210;6.838;2023-07-08T00:58:19;3.95;;;2.83;;
27491;SDS011;14927;51.210;6.838;2023-07-08T01:01:06;4.47;;;3.05;;
27491;SDS011;14927;51.210;6.838;2023-07-08T01:03:53;3.45;;;2.58;;
27491;SDS011;14927;51.210;6.838;2023-07-08T01:06:47;7.63;;;3.03;;
27491;SDS011;14927;51.210;6.838;2023-07-08T01:09:43;4.72;;;2.88;;
27491;SDS011;14927;51.210;6.838;2023-07-08T01:12:31;3.95;;;3.15;;
27491;SDS011;14927;51.210;6.838;2023-07-08T01:15:25;3.50;;;2.55;;
27491;SDS011;14927;51.210;6.838;2023-07-08T01:18:17;5.68;;;3.60;;
27491;SDS011;14927;51.210;6.838;2023-07-08T01:24:13;3.42;;;2.72;;
27491;SDS011;14927;51.210;6.838;2023-07-08T01:26:59;5.43;;;3.10;;
27491;SDS011;14927;51.210;6.838;2023-07-08T01:29:45;3.60;;;3.05;;
27491;SDS011;14927;51.210;6.838;2023-07-08T01:32:31;5.85;;;3.30;;
27491;SDS011;14927;51.210;6.838;2023-07-08T01:35:20;4.37;;;2.87;;
27491;SDS011;14927;51.210;6.838;2023-07-08T01:38:05;7.35;;;3.20;;
27491;SDS011;14927;51.210;6.838;2023-07-08T01:40:56;3.83;;;3.17;;
27491;SDS011;14927;51.210;6.838;2023-07-08T01:43:41;3.92;;;2.55;;
27491;SDS011;14927;51.210;6.838;2023-07-08T01:46:26;3.90;;;2.97;;
27491;SDS011;14927;51.210;6.838;2023-07-08T01:49:11;3.45;;;2.35;;
27491;SDS011;14927;51.210;6.838;2023-07-08T01:51:56;4.18;;;2.83;;
27491;SDS011;14927;51.210;6.838;2023-07-08T01:54:42;6.05;;;2.80;;
27491;SDS011;14927;51.210;6.838;2023-07-08T01:57:26;3.28;;;2.53;;
27491;SDS011;14927;51.210;6.838;2023-07-08T02:00:11;6.53;;;2.90;;
27491;SDS011;14927;51.210;6.838;2023-07-08T02:02:57;4.25;;;2.88;;
27491;SDS011;14927;51.210;6.838;2023-07-08T02:05:41;7.40;;;3.15;;
27491;SDS011;14927;51.210;6.838;2023-07-08T02:08:28;7.25;;;3.00;;
27491;SDS011;14927;51.210;6.838;2023-07-08T02:11:13;5.43;;;2.95;;
27491;SDS011;14927;51.210;6.838;2023-07-08T02:13:58;4.03;;;2.95;;
27491;SDS011;14927;51.210;6.838;2023-07-08T02:16:44;3.75;;;3.03;;
27491;SDS011;14927;51.210;6.838;2023-07-08T02:19:28;6.10;;;3.00;;
27491;SDS011;14927;51.210;6.838;2023-07-08T02:22:13;5.72;;;3.05;;
27491;SDS011;14927;51.210;6.838;2023-07-08T02:24:58;6.25;;;3.00;;
27491;SDS011;14927;51.210;6.838;2023-07-08T02:27:42;7.13;;;2.95;;
27491;SDS011;14927;51.210;6.838;2023-07-08T02:30:27;3.40;;;2.92;;
27491;SDS011;14927;51.210;6.838;2023-07-08T02:33:12;5.45;;;3.17;;
27491;SDS011;14927;51.210;6.838;2023-07-08T02:36:00;5.18;;;2.97;;
27491;SDS011;14927;51.210;6.838;2023-07-08T02:38:45;4.03;;;3.00;;
27491;SDS011;14927;51.210;6.838;2023-07-08T02:41:30;8.18;;;3.13;;
27491;SDS011;14927;51.210;6.838;2023-07-08T02:44:14;6.95;;;3.05;;
27491;SDS011;14927;51.210;6.838;2023-07-08T02:46:59;4.28;;;3.20;;
27491;SDS011;14927;51.210;6.838;2023-07-08T02:49:44;4.63;;;3.20;;
27491;SDS011;14927;51.210;6.838;2023-07-08T02:52:29;11.15;;;3.40;;
27491;SDS011;14927;51.210;6.838;2023-07-08T02:55:15;7.22;;;3.38;;
27491;SDS011;14927;51.210;6.838;2023-07-08T02:57:59;4.05;;;3.03;;
27491;SDS011;14927;51.210;6.838;2023-07-08T03:00:44;5.70;;;3.00;;
27491;SDS011;14927;51.210;6.838;2023-07-08T03:03:28;4.72;;;2.92;;
27491;SDS011;14927;51.210;6.838;2023-07-08T03:06:13;4.85;;;3.08;;
27491;SDS011;14927;51.210;6.838;2023-07-08T03:08:58;5.45;;;3.10;;
27491;SDS011;14927;51.210;6.838;2023-07-08T03:11:43;11.45;;;3.20;;
27491;SDS011;14927;51.210;6.838;2023-07-08T03:14:31;6.90;;;3.47;;
27491;SDS011;14927;51.210;6.838;2023-07-08T03:17:15;7.05;;;2.92;;
27491;SDS011;14927;51.210;6.838;2023-07-08T03:20:01;4.07;;;3.05;;
27491;SDS011;14927;51.210;6.838;2023-07-08T03:22:49;4.45;;;2.97;;
27491;SDS011;14927;51.210;6.838;2023-07-08T03:25:37;6.10;;;3.67;;
27491;SDS011;14927;51.210;6.838;2023-07-08T03:28:22;4.32;;;3.28;;
27491;SDS011;14927;51.210;6.838;2023-07-08T03:31:08;7.97;;;2.53;;
27491;SDS011;14927;51.210;6.838;2023-07-08T03:33:53;6.88;;;3.28;;
27491;SDS011;14927;51.210;6.838;2023-07-08T03:36:45;5.65;;;3.42;;
27491;SDS011;14927;51.210;6.838;2023-07-08T03:39:34;6.43;;;3.53;;
27491;SDS011;14927;51.210;6.838;2023-07-08T03:42:18;6.95;;;3.17;;
27491;SDS011;14927;51.210;6.838;2023-07-08T03:45:05;4.30;;;3.30;;
27491;SDS011;14927;51.210;6.838;2023-07-08T03:47:51;5.78;;;3.33;;
27491;SDS011;14927;51.210;6.838;2023-07-08T03:50:35;4.57;;;3.28;;
27491;SDS011;14927;51.210;6.838;2023-07-08T03:53:23;4.60;;;3.35;;
27491;SDS011;14927;51.210;6.838;2023-07-08T03:56:08;4.53;;;3.22;;
27491;SDS011;14927;51.210;6.838;2023-07-08T03:58:56;5.32;;;3.35;;
27491;SDS011;14927;51.210;6.838;2023-07-08T04:01:41;4.70;;;3.47;;
27491;SDS011;14927;51.210;6.838;2023-07-08T04:04:26;6.15;;;3.45;;
27491;SDS011;14927;51.210;6.838;2023-07-08T04:07:10;7.50;;;4.40;;
27491;SDS011;14927;51.210;6.838;2023-07-08T04:09:56;4.90;;;3.42;;
27491;SDS011;14927;51.210;6.838;2023-07-08T04:12:41;4.40;;;3.10;;
27491;SDS011;14927;51.210;6.838;2023-07-08T04:15:26;5.60;;;3.20;;
27491;SDS011;14927;51.210;6.838;2023-07-08T04:18:12;3.20;;;2.90;;
27491;SDS011;14927;51.210;6.838;2023-07-08T04:20:57;5.65;;;3.08;;
27491;SDS011;14927;51.210;6.838;2023-07-08T04:23:42;6.65;;;2.78;;
27491;SDS011;14927;51.210;6.838;2023-07-08T04:26:27;5.30;;;3.30;;
27491;SDS011;14927;51.210;6.838;2023-07-08T04:29:12;5.55;;;3.42;;
27491;SDS011;14927;51.210;6.838;2023-07-08T04:32:03;3.72;;;2.80;;
27491;SDS011;14927;51.210;6.838;2023-07-08T04:34:48;7.93;;;3.45;;
27491;SDS011;14927;51.210;6.838;2023-07-08T04:37:33;5.60;;;3.40;;
27491;SDS011;14927;51.210;6.838;2023-07-08T04:40:19;6.32;;;3.60;;
27491;SDS011;14927;51.210;6.838;2023-07-08T04:43:05;6.80;;;3.53;;
27491;SDS011;14927;51.210;6.838;2023-07-08T04:45:51;5.07;;;3.38;;
27491;SDS011;14927;51.210;6.838;2023-07-08T04:48:37;4.90;;;3.28;;
27491;SDS011;14927;51.210;6.838;2023-07-08T04:51:22;6.65;;;3.15;;
27491;SDS011;14927;51.210;6.838;2023-07-08T04:54:08;4.50;;;3.10;;
27491;SDS011;14927;51.210;6.838;2023-07-08T04:56:54;5.03;;;3.60;;
27491;SDS011;14927;51.210;6.838;2023-07-08T04:59:39;5.68;;;3.35;;
27491;SDS011;14927;51.210;6.838;2023-07-08T05:02:23;8.77;;;3.75;;
27491;SDS011;14927;51.210;6.838;2023-07-08T05:05:08;5.82;;;4.10;;
27491;SDS011;14927;51.210;6.838;2023-07-08T05:07:52;6.32;;;4.05;;
27491;SDS011;14927;51.210;6.838;2023-07-08T05:10:38;5.43;;;4.13;;
27491;SDS011;14927;51.210;6.838;2023-07-08T05:13:23;7.75;;;4.60;;
27491;SDS011;14927;51.210;6.838;2023-07-08T05:16:07;4.95;;;3.60;;
27491;SDS011;14927;51.210;6.838;2023-07-08T05:18:52;7.65;;;3.75;;
27491;SDS011;14927;51.210;6.838;2023-07-08T05:21:37;7.13;;;3.90;;
27491;SDS011;14927;51.210;6.838;2023-07-08T05:24:21;5.05;;;3.40;;
27491;SDS011;14927;51.210;6.838;2023-07-08T05:27:06;4.75;;;3.72;;
27491;SDS011;14927;51.210;6.838;2023-07-08T05:29:51;5.03;;;3.55;;
27491;SDS011;14927;51.210;6.838;2023-07-08T05:32:35;8.00;;;3.88;;
27491;SDS011;14927;51.210;6.838;2023-07-08T05:35:20;4.55;;;3.47;;
27491;SDS011;14927;51.210;6.838;2023-07-08T05:38:05;5.40;;;3.67;;
27491;SDS011;14927;51.210;6.838;2023-07-08T05:40:50;8.63;;;4.07;;
27491;SDS011;14927;51.210;6.838;2023-07-08T05:43:38;8.73;;;3.53;;
27491;SDS011;14927;51.210;6.838;2023-07-08T05:46:22;5.30;;;3.40;;
27491;SDS011;14927;51.210;6.838;2023-07-08T05:49:07;13.52;;;4.22;;
27491;SDS011;14927;51.210;6.838;2023-07-08T05:51:52;6.97;;;3.78;;
27491;SDS011;14927;51.210;6.838;2023-07-08T05:54:37;5.88;;;3.72;;
27491;SDS011;14927;51.210;6.838;2023-07-08T05:57:22;5.15;;;3.40;;
27491;SDS011;14927;51.210;6.838;2023-07-08T06:00:07;4.72;;;3.38;;
27491;SDS011;14927;51.210;6.838;2023-07-08T06:02:53;4.93;;;3.45;;
27491;SDS011;14927;51.210;6.838;2023-07-08T06:05:37;5.30;;;2.97;;
27491;SDS011;14927;51.210;6.838;2023-07-08T06:08:22;6.97;;;3.30;;
27491;SDS011;14927;51.210;6.838;2023-07-08T06:11:07;6.85;;;3.70;;
27491;SDS011;14927;51.210;6.838;2023-07-08T06:13:52;6.07;;;4.07;;
27491;SDS011;14927;51.210;6.838;2023-07-08T06:16:36;6.55;;;4.15;;
27491;SDS011;14927;51.210;6.838;2023-07-08T06:19:21;4.45;;;3.38;;
27491;SDS011;14927;51.210;6.838;2023-07-08T06:22:06;5.15;;;3.50;;
27491;SDS011;14927;51.210;6.838;2023-07-08T06:24:50;5.53;;;3.60;;
27491;SDS011;14927;51.210;6.838;2023-07-08T06:27:35;7.45;;;3.75;;
27491;SDS011;14927;51.210;6.838;2023-07-08T06:30:19;6.50;;;3.50;;
27491;SDS011;14927;51.210;6.838;2023-07-08T06:33:04;3.45;;;3.15;;
27491;SDS011;14927;51.210;6.838;2023-07-08T06:35:49;7.05;;;3.70;;
27491;SDS011;14927;51.210;6.838;2023-07-08T06:38:34;5.28;;;3.47;;
27491;SDS011;14927;51.210;6.838;2023-07-08T06:41:19;6.65;;;3.65;;
27491;SDS011;14927;51.210;6.838;2023-07-08T06:44:03;4.85;;;3.42;;
27491;SDS011;14927;51.210;6.838;2023-07-08T06:46:51;5.07;;;3.35;;
27491;SDS011;14927;51.210;6.838;2023-07-08T06:49:35;4.53;;;3.22;;
27491;SDS011;14927;51.210;6.838;2023-07-08T06:52:20;8.30;;;3.50;;
27491;SDS011;14927;51.210;6.838;2023-07-08T06:55:06;5.47;;;3.35;;
27491;SDS011;14927;51.210;6.838;2023-07-08T06:57:54;4.43;;;3.45;;
27491;SDS011;14927;51.210;6.838;2023-07-08T07:00:41;7.72;;;3.97;;
27491;SDS011;14927;51.210;6.838;2023-07-08T07:03:27;6.40;;;3.70;;
27491;SDS011;14927;51.210;6.838;2023-07-08T07:06:11;5.25;;;3.97;;
27491;SDS011;14927;51.210;6.838;2023-07-08T07:08:56;4.40;;;3.40;;
27491;SDS011;14927;51.210;6.838;2023-07-08T07:11:40;7.25;;;3.90;;
27491;SDS011;14927;51.210;6.838;2023-07-08T07:14:25;6.85;;;3.95;;
27491;SDS011;14927;51.210;6.838;2023-07-08T07:17:10;5.88;;;3.50;;
27491;SDS011;14927;51.210;6.838;2023-07-08T07:19:54;6.05;;;3.83;;
27491;SDS011;14927;51.210;6.838;2023-07-08T07:22:39;4.63;;;3.75;;
27491;SDS011;14927;51.210;6.838;2023-07-08T07:25:24;7.85;;;4.20;;
27491;SDS011;14927;51.210;6.838;2023-07-08T07:28:09;6.63;;;4.05;;
27491;SDS011;14927;51.210;6.838;2023-07-08T07:30:58;7.30;;;4.82;;
27491;SDS011;14927;51.210;6.838;2023-07-08T07:36:28;4.78;;;3.88;;
27491;SDS011;14927;51.210;6.838;2023-07-08T07:39:12;6.10;;;4.30;;
27491;SDS011;14927;51.210;6.838;2023-07-08T07:41:57;5.63;;;4.38;;
27491;SDS011;14927;51.210;6.838;2023-07-08T07:44:42;4.82;;;4.05;;
27491;SDS011;14927;51.210;6.838;2023-07-08T07:47:27;5.68;;;4.50;;
27491;SDS011;14927;51.210;6.838;2023-07-08T07:50:12;6.70;;;4.68;;
27491;SDS011;14927;51.210;6.838;2023-07-08T07:52:56;8.00;;;4.55;;
27491;SDS011;14927;51.210;6.838;2023-07-08T07:55:41;5.00;;;4.15;;
27491;SDS011;14927;51.210;6.838;2023-07-08T07:58:26;9.10;;;4.85;;
27491;SDS011;14927;51.210;6.838;2023-07-08T08:01:11;5.28;;;4.57;;
27491;SDS011;14927;51.210;6.838;2023-07-08T08:03:57;5.00;;;4.50;;
27491;SDS011;14927;51.210;6.838;2023-07-08T08:06:41;6.38;;;4.40;;
27491;SDS011;14927;51.210;6.838;2023-07-08T08:09:26;5.45;;;4.32;;
27491;SDS011;14927;51.210;6.838;2023-07-08T08:12:11;6.80;;;4.65;;
27491;SDS011;14927;51.210;6.838;2023-07-08T08:14:55;7.28;;;4.78;;
27491;SDS011;14927;51.210;6.838;2023-07-08T08:17:40;5.85;;;4.22;;
27491;SDS011;14927;51.210;6.838;2023-07-08T08:20:25;6.15;;;4.50;;
27491;SDS011;14927;51.210;6.838;2023-07-08T08:23:10;5.63;;;4.07;;
27491;SDS011;14927;51.210;6.838;2023-07-08T08:25:54;5.85;;;4.88;;
27491;SDS011;14927;51.210;6.838;2023-07-08T08:28:39;7.32;;;4.70;;
27491;SDS011;14927;51.210;6.838;2023-07-08T08:31:24;7.07;;;5.03;;
27491;SDS011;14927;51.210;6.838;2023-07-08T08:34:08;6.80;;;4.82;;
27491;SDS011;14927;51.210;6.838;2023-07-08T08:36:53;11.95;;;4.72;;
27491;SDS011;14927;51.210;6.838;2023-07-08T08:39:39;7.68;;;4.95;;
27491;SDS011;14927;51.210;6.838;2023-07-08T08:42:44;7.00;;;5.10;;
27491;SDS011;14927;51.210;6.838;2023-07-08T08:45:45;5.50;;;4.95;;
27491;SDS011;14927;51.210;6.838;2023-07-08T08:49:02;6.05;;;4.85;;
27491;SDS011;14927;51.210;6.838;2023-07-08T08:52:07;9.02;;;4.95;;
27491;SDS011;14927;51.210;6.838;2023-07-08T08:54:52;8.88;;;4.72;;
27491;SDS011;14927;51.210;6.838;2023-07-08T08:57:42;6.47;;;4.70;;
27491;SDS011;14927;51.210;6.838;2023-07-08T09:00:46;7.82;;;4.38;;
27491;SDS011;14927;51.210;6.838;2023-07-08T09:07:00;5.57;;;4.13;;
27491;SDS011;14927;51.210;6.838;2023-07-08T09:09:53;6.82;;;4.63;;
27491;SDS011;14927;51.210;6.838;2023-07-08T09:12:48;14.07;;;5.38;;
27491;SDS011;14927;51.210;6.838;2023-07-08T09:15:37;7.65;;;4.57;;
27491;SDS011;14927;51.210;6.838;2023-07-08T09:18:25;5.65;;;4.05;;
27491;SDS011;14927;51.210;6.838;2023-07-08T09:21:19;6.97;;;3.92;;
27491;SDS011;14927;51.210;6.838;2023-07-08T09:24:20;7.43;;;4.57;;
27491;SDS011;14927;51.210;6.838;2023-07-08T09:27:31;4.63;;;4.03;;
27491;SDS011;14927;51.210;6.838;2023-07-08T09:30:17;4.60;;;3.63;;
27491;SDS011;14927;51.210;6.838;2023-07-08T09:33:06;8.60;;;4.70;;
27491;SDS011;14927;51.210;6.838;2023-07-08T09:35:52;4.82;;;3.92;;
27491;SDS011;14927;51.210;6.838;2023-07-08T09:38:37;5.90;;;4.38;;
27491;SDS011;14927;51.210;6.838;2023-07-08T09:41:32;6.10;;;4.05;;
27491;SDS011;14927;51.210;6.838;2023-07-08T09:44:23;5.18;;;3.90;;
27491;SDS011;14927;51.210;6.838;2023-07-08T09:47:20;5.72;;;3.88;;
27491;SDS011;14927;51.210;6.838;2023-07-08T09:50:24;7.68;;;3.40;;
27491;SDS011;14927;51.210;6.838;2023-07-08T09:53:18;5.85;;;3.90;;
27491;SDS011;14927;51.210;6.838;2023-07-08T09:56:03;4.78;;;3.83;;
27491;SDS011;14927;51.210;6.838;2023-07-08T09:58:49;5.57;;;3.85;;
27491;SDS011;14927;51.210;6.838;2023-07-08T10:01:35;15.80;;;4.40;;
27491;SDS011;14927;51.210;6.838;2023-07-08T10:04:19;5.68;;;4.15;;
27491;SDS011;14927;51.210;6.838;2023-07-08T10:07:05;4.38;;;3.97;;
27491;SDS011;14927;51.210;6.838;2023-07-08T10:10:00;6.10;;;4.05;;
27491;SDS011;14927;51.210;6.838;2023-07-08T10:16:25;6.60;;;3.95;;
27491;SDS011;14927;51.210;6.838;2023-07-08T10:19:19;9.43;;;3.97;;
27491;SDS011;14927;51.210;6.838;2023-07-08T10:35:17;8.98;;;3.65;;
27491;SDS011;14927;51.210;6.838;2023-07-08T10:41:14;5.65;;;3.70;;
27491;SDS011;14927;51.210;6.838;2023-07-08T10:47:40;7.88;;;4.05;;
27491;SDS011;14927;51.210;6.838;2023-07-08T10:54:17;9.82;;;4.60;;
27491;SDS011;14927;51.210;6.838;2023-07-08T11:00:35;4.88;;;3.67;;
27491;SDS011;14927;51.210;6.838;2023-07-08T11:09:46;5.93;;;4.22;;
27491;SDS011;14927;51.210;6.838;2023-07-08T11:12:45;4.15;;;3.58;;
27491;SDS011;14927;51.210;6.838;2023-07-08T11:21:37;10.23;;;3.88;;
27491;SDS011;14927;51.210;6.838;2023-07-08T11:24:34;5.22;;;3.67;;
27491;SDS011;14927;51.210;6.838;2023-07-08T11:27:31;5.55;;;3.92;;
27491;SDS011;14927;51.210;6.838;2023-07-08T11:30:24;4.95;;;3.40;;
27491;SDS011;14927;51.210;6.838;2023-07-08T11:33:13;5.95;;;3.85;;
27491;SDS011;14927;51.210;6.838;2023-07-08T11:35:59;5.78;;;3.45;;
27491;SDS011;14927;51.210;6.838;2023-07-08T11:38:49;6.07;;;4.00;;
27491;SDS011;14927;51.210;6.838;2023-07-08T11:41:40;5.93;;;3.78;;
27491;SDS011;14927;51.210;6.838;2023-07-08T11:44:25;7.10;;;3.50;;
27491;SDS011;14927;51.210;6.838;2023-07-08T11:47:17;3.78;;;3.20;;
27491;SDS011;14927;51.210;6.838;2023-07-08T11:53:46;7.20;;;3.58;;
27491;SDS011;14927;51.210;6.838;2023-07-08T11:59:17;6.18;;;3.60;;
27491;SDS011;14927;51.210;6.838;2023-07-08T12:02:24;9.77;;;3.90;;
27491;SDS011;14927;51.210;6.838;2023-07-08T12:05:13;7.03;;;3.42;;
27491;SDS011;14927;51.210;6.838;2023-07-08T12:08:01;6.57;;;3.67;;
27491;SDS011;14927;51.210;6.838;2023-07-08T12:10:55;5.20;;;3.65;;
27491;SDS011;14927;51.210;6.838;2023-07-08T12:13:41;5.13;;;3.33;;
27491;SDS011;14927;51.210;6.838;2023-07-08T12:16:26;4.97;;;3.40;;
27491;SDS011;14927;51.210;6.838;2023-07-08T12:19:13;7.20;;;3.20;;
27491;SDS011;14927;51.210;6.838;2023-07-08T12:22:01;5.70;;;3.35;;
27491;SDS011;14927;51.210;6.838;2023-07-08T12:24:48;3.92;;;3.10;;
27491;SDS011;14927;51.210;6.838;2023-07-08T12:27:33;6.90;;;3.08;;
27491;SDS011;14927;51.210;6.838;2023-07-08T12:30:18;4.30;;;3.10;;
27491;SDS011;14927;51.210;6.838;2023-07-08T12:33:02;7.57;;;3.38;;
27491;SDS011;14927;51.210;6.838;2023-07-08T12:35:53;5.97;;;3.13;;
27491;SDS011;14927;51.210;6.838;2023-07-08T12:38:39;8.25;;;3.28;;
27491;SDS011;14927;51.210;6.838;2023-07-08T12:41:30;5.25;;;3.25;;
27491;SDS011;14927;51.210;6.838;2023-07-08T12:44:20;3.75;;;3.17;;
27491;SDS011;14927;51.210;6.838;2023-07-08T12:47:07;7.57;;;3.47;;
27491;SDS011;14927;51.210;6.838;2023-07-08T12:49:52;5.13;;;3.33;;
27491;SDS011;14927;51.210;6.838;2023-07-08T12:52:39;7.00;;;3.95;;
27491;SDS011;14927;51.210;6.838;2023-07-08T12:55:24;3.42;;;2.80;;
27491;SDS011;14927;51.210;6.838;2023-07-08T12:58:18;4.10;;;3.38;;
27491;SDS011;14927;51.210;6.838;2023-07-08T13:01:18;4.40;;;3.10;;
27491;SDS011;14927;51.210;6.838;2023-07-08T13:04:06;5.57;;;3.33;;
27491;SDS011;14927;51.210;6.838;2023-07-08T13:06:55;4.78;;;3.22;;
27491;SDS011;14927;51.210;6.838;2023-07-08T13:09:42;5.70;;;3.42;;
27491;SDS011;14927;51.210;6.838;2023-07-08T13:12:30;4.75;;;3.35;;
27491;SDS011;14927;51.210;6.838;2023-07-08T13:15:21;7.10;;;3.15;;
27491;SDS011;14927;51.210;6.838;2023-07-08T13:18:16;7.05;;;3.60;;
27491;SDS011;14927;51.210;6.838;2023-07-08T13:21:12;5.22;;;3.35;;
27491;SDS011;14927;51.210;6.838;2023-07-08T13:23:59;7.95;;;3.00;;
27491;SDS011;14927;51.210;6.838;2023-07-08T13:26:46;6.10;;;3.15;;
27491;SDS011;14927;51.210;6.838;2023-07-08T13:29:34;9.52;;;3.60;;
27491;SDS011;14927;51.210;6.838;2023-07-08T13:32:19;3.95;;;3.00;;
27491;SDS011;14927;51.210;6.838;2023-07-08T13:35:03;6.43;;;3.13;;
27491;SDS011;14927;51.210;6.838;2023-07-08T13:37:51;6.18;;;3.10;;
27491;SDS011;14927;51.210;6.838;2023-07-08T13:40:36;7.30;;;3.90;;
27491;SDS011;14927;51.210;6.838;2023-07-08T13:43:27;4.95;;;3.25;;
27491;SDS011;14927;51.210;6.838;2023-07-08T13:55:09;6.30;;;2.83;;
27491;SDS011;14927;51.210;6.838;2023-07-08T13:58:02;7.97;;;2.75;;
27491;SDS011;14927;51.210;6.838;2023-07-08T14:00:46;4.85;;;3.10;;
27491;SDS011;14927;51.210;6.838;2023-07-08T14:03:31;5.03;;;3.15;;
27491;SDS011;14927;51.210;6.838;2023-07-08T14:06:16;3.97;;;3.20;;
27491;SDS011;14927;51.210;6.838;2023-07-08T14:11:57;6.05;;;3.08;;
27491;SDS011;14927;51.210;6.838;2023-07-08T14:14:42;9.48;;;4.07;;
27491;SDS011;14927;51.210;6.838;2023-07-08T14:17:27;4.30;;;3.08;;
27491;SDS011;14927;51.210;6.838;2023-07-08T14:20:13;3.13;;;2.80;;
27491;SDS011;14927;51.210;6.838;2023-07-08T14:23:00;3.95;;;3.35;;
27491;SDS011;14927;51.210;6.838;2023-07-08T14:25:45;15.05;;;3.63;;
27491;SDS011;14927;51.210;6.838;2023-07-08T14:28:30;5.60;;;3.42;;
27491;SDS011;14927;51.210;6.838;2023-07-08T14:31:15;7.13;;;3.53;;
27491;SDS011;14927;51.210;6.838;2023-07-08T14:34:12;4.10;;;3.30;;
27491;SDS011;14927;51.210;6.838;2023-07-08T14:37:13;4.70;;;3.17;;
27491;SDS011;14927;51.210;6.838;2023-07-08T14:39:58;5.22;;;2.90;;
27491;SDS011;14927;51.210;6.838;2023-07-08T14:43:14;5.32;;;3.47;;
27491;SDS011;14927;51.210;6.838;2023-07-08T14:46:04;5.47;;;3.25;;
27491;SDS011;14927;51.210;6.838;2023-07-08T14:48:50;4.65;;;2.90;;
27491;SDS011;14927;51.210;6.838;2023-07-08T14:51:34;4.30;;;3.10;;
27491;SDS011;14927;51.210;6.838;2023-07-08T14:54:20;3.90;;;3.13;;
27491;SDS011;14927;51.210;6.838;2023-07-08T14:57:06;5.50;;;3.35;;
27491;SDS011;14927;51.210;6.838;2023-07-08T14:59:51;6.55;;;3.40;;
27491;SDS011;14927;51.210;6.838;2023-07-08T15:02:36;5.38;;;3.60;;
27491;SDS011;14927;51.210;6.838;2023-07-08T15:08:14;5.90;;;3.58;;
27491;SDS011;14927;51.210;6.838;2023-07-08T15:11:01;6.35;;;3.72;;
27491;SDS011;14927;51.210;6.838;2023-07-08T15:13:49;6.68;;;3.70;;
27491;SDS011;14927;51.210;6.838;2023-07-08T15:16:34;6.07;;;3.47;;
27491;SDS011;14927;51.210;6.838;2023-07-08T15:19:19;6.70;;;3.67;;
27491;SDS011;14927;51.210;6.838;2023-07-08T15:22:05;5.13;;;3.67;;
27491;SDS011;14927;51.210;6.838;2023-07-08T15:24:50;7.63;;;4.00;;
27491;SDS011;14927;51.210;6.838;2023-07-08T15:27:40;7.93;;;3.28;;
27491;SDS011;14927;51.210;6.838;2023-07-08T15:30:31;7.40;;;4.18;;
27491;SDS011;14927;51.210;6.838;2023-07-08T15:33:15;4.97;;;3.63;;
27491;SDS011;14927;51.210;6.838;2023-07-08T15:36:00;7.25;;;3.20;;
27491;SDS011;14927;51.210;6.838;2023-07-08T15:38:44;5.90;;;3.40;;
27491;SDS011;14927;51.210;6.838;2023-07-08T15:41:29;5.80;;;3.80;;
27491;SDS011;14927;51.210;6.838;2023-07-08T15:44:14;7.50;;;3.67;;
27491;SDS011;14927;51.210;6.838;2023-07-08T15:46:58;4.75;;;3.47;;
27491;SDS011;14927;51.210;6.838;2023-07-08T15:49:45;5.35;;;3.45;;
27491;SDS011;14927;51.210;6.838;2023-07-08T15:52:30;6.57;;;4.10;;
27491;SDS011;14927;51.210;6.838;2023-07-08T15:55:16;4.53;;;3.45;;
27491;SDS011;14927;51.210;6.838;2023-07-08T15:58:12;8.93;;;4.05;;
27491;SDS011;14927;51.210;6.838;2023-07-08T16:01:19;7.28;;;3.88;;
27491;SDS011;14927;51.210;6.838;2023-07-08T16:04:33;5.45;;;3.13;;
27491;SDS011;14927;51.210;6.838;2023-07-08T16:07:17;9.88;;;3.60;;
27491;SDS011;14927;51.210;6.838;2023-07-08T16:10:02;4.63;;;3.50;;
27491;SDS011;14927;51.210;6.838;2023-07-08T16:12:46;5.18;;;3.70;;
27491;SDS011;14927;51.210;6.838;2023-07-08T16:15:33;6.68;;;3.72;;
27491;SDS011;14927;51.210;6.838;2023-07-08T16:18:23;6.13;;;3.75;;
27491;SDS011;14927;51.210;6.838;2023-07-08T16:21:08;8.68;;;3.95;;
27491;SDS011;14927;51.210;6.838;2023-07-08T16:23:53;5.75;;;3.83;;
27491;SDS011;14927;51.210;6.838;2023-07-08T16:26:38;6.90;;;3.80;;
27491;SDS011;14927;51.210;6.838;2023-07-08T16:29:24;5.75;;;3.78;;
27491;SDS011;14927;51.210;6.838;2023-07-08T16:32:11;6.40;;;3.35;;
27491;SDS011;14927;51.210;6.838;2023-07-08T16:35:02;5.05;;;3.53;;
27491;SDS011;14927;51.210;6.838;2023-07-08T16:37:51;7.43;;;3.40;;
27491;SDS011;14927;51.210;6.838;2023-07-08T16:40:37;6.30;;;3.50;;
27491;SDS011;14927;51.210;6.838;2023-07-08T16:43:27;9.23;;;3.95;;
27491;SDS011;14927;51.210;6.838;2023-07-08T16:46:16;6.47;;;4.45;;
27491;SDS011;14927;51.210;6.838;2023-07-08T16:49:01;4.40;;;3.88;;
27491;SDS011;14927;51.210;6.838;2023-07-08T16:51:46;8.20;;;4.05;;
27491;SDS011;14927;51.210;6.838;2023-07-08T16:54:31;6.15;;;3.95;;
27491;SDS011;14927;51.210;6.838;2023-07-08T16:57:18;7.13;;;4.07;;
27491;SDS011;14927;51.210;6.838;2023-07-08T17:00:03;5.95;;;3.75;;
27491;SDS011;14927;51.210;6.838;2023-07-08T17:02:49;7.90;;;3.65;;
27491;SDS011;14927;51.210;6.838;2023-07-08T17:05:34;8.38;;;3.70;;
27491;SDS011;14927;51.210;6.838;2023-07-08T17:08:19;8.73;;;3.88;;
27491;SDS011;14927;51.210;6.838;2023-07-08T17:11:03;6.55;;;4.00;;
27491;SDS011;14927;51.210;6.838;2023-07-08T17:13:48;8.57;;;4.25;;
27491;SDS011;14927;51.210;6.838;2023-07-08T17:16:33;5.40;;;3.72;;
27491;SDS011;14927;51.210;6.838;2023-07-08T17:19:20;6.85;;;4.55;;
27491;SDS011;14927;51.210;6.838;2023-07-08T17:22:10;6.50;;;3.83;;
27491;SDS011;14927;51.210;6.838;2023-07-08T17:24:55;9.10;;;4.55;;
27491;SDS011;14927;51.210;6.838;2023-07-08T17:27:40;6.20;;;4.35;;
27491;SDS011;14927;51.210;6.838;2023-07-08T17:30:24;5.78;;;4.32;;
27491;SDS011;14927;51.210;6.838;2023-07-08T17:33:15;9.68;;;4.43;;
27491;SDS011;14927;51.210;6.838;2023-07-08T17:36:07;9.73;;;4.80;;
27491;SDS011;14927;51.210;6.838;2023-07-08T17:38:56;9.65;;;5.03;;
27491;SDS011;14927;51.210;6.838;2023-07-08T17:41:42;7.63;;;4.63;;
27491;SDS011;14927;51.210;6.838;2023-07-08T17:44:28;7.75;;;4.65;;
27491;SDS011;14927;51.210;6.838;2023-07-08T17:47:13;9.18;;;4.70;;
27491;SDS011;14927;51.210;6.838;2023-07-08T17:50:00;7.25;;;4.82;;
27491;SDS011;14927;51.210;6.838;2023-07-08T17:52:45;8.85;;;5.30;;
27491;SDS011;14927;51.210;6.838;2023-07-08T17:55:31;7.70;;;5.30;;
27491;SDS011;14927;51.210;6.838;2023-07-08T17:58:16;9.20;;;6.10;;
27491;SDS011;14927;51.210;6.838;2023-07-08T18:01:04;9.85;;;5.80;;